createdAt,value
2023-02-17T05:50:18.616Z,56.00
2023-02-17T05:52:49.132Z,51.70
2023-02-17T05:55:16.480Z,52.90
2023-02-17T05:57:43.226Z,41.50
2023-02-17T06:00:11.179Z,29.00
2023-02-17T06:02:41.032Z,31.10
2023-02-17T06:05:08.629Z,25.70
2023-02-17T06:07:35.546Z,27.90
2023-02-17T06:10:06.559Z,35.10
2023-02-17T06:12:34.283Z,31.90
2023-02-17T06:15:01.003Z,37.70
2023-02-17T06:20:00.381Z,35.90
2023-02-17T06:22:27.171Z,32.40
2023-02-17T06:24:54.037Z,39.90
2023-02-17T06:27:25.603Z,37.00
2023-02-17T06:32:21.674Z,41.40
2023-02-17T06:34:53.632Z,36.10
2023-02-17T06:41:42.350Z,49.60
2023-02-17T06:44:29.252Z,45.00
2023-02-17T06:47:28.124Z,44.90
2023-02-17T06:50:57.130Z,40.40
2023-02-17T06:53:36.353Z,42.90
2023-02-17T06:59:33.696Z,42.00
2023-02-17T07:02:11.769Z,36.40
2023-02-17T07:04:40.362Z,42.70
2023-02-17T07:07:13.578Z,59.50
2023-02-17T07:09:41.037Z,43.80
2023-02-17T07:12:08.843Z,42.20
2023-02-17T07:14:36.545Z,39.10
2023-02-17T07:17:34.987Z,31.80
2023-02-17T07:20:42.197Z,47.90
2023-02-17T07:23:29.326Z,39.80
2023-02-17T07:26:11.812Z,48.70
2023-02-17T07:29:09.721Z,41.30
2023-02-17T07:31:53.164Z,37.10
2023-02-17T07:34:19.962Z,36.90
2023-02-17T07:36:47.303Z,35.90
2023-02-17T07:39:14.092Z,40.40
2023-02-17T07:41:40.889Z,41.70
2023-02-17T07:44:10.817Z,37.60
2023-02-17T07:46:39.236Z,36.10
2023-02-17T07:49:06.140Z,31.60
2023-02-17T07:51:34.726Z,32.10
2023-02-17T07:54:04.196Z,28.60
2023-02-17T07:56:34.173Z,26.50
2023-02-17T07:59:02.941Z,26.90
2023-02-17T08:01:30.453Z,33.90
2023-02-17T08:04:03.704Z,34.90
2023-02-17T08:06:33.088Z,30.80
2023-02-17T08:09:20.577Z,26.00
2023-02-17T08:12:06.968Z,28.60
2023-02-17T08:14:36.158Z,32.70
2023-02-17T08:17:25.139Z,30.10
2023-02-17T08:20:41.889Z,32.80
2023-02-17T08:24:28.538Z,28.70
2023-02-17T08:28:00.551Z,32.50
2023-02-17T08:34:59.607Z,29.10
2023-02-17T08:37:37.271Z,26.70
2023-02-17T08:46:44.565Z,31.10
2023-02-17T08:49:45.326Z,34.70
2023-02-17T08:52:12.892Z,33.00
2023-02-17T08:54:40.955Z,35.80
2023-02-17T08:57:15.010Z,35.30
2023-02-17T09:00:05.592Z,34.60
2023-02-17T09:03:41.197Z,39.10
2023-02-17T09:07:00.517Z,36.60
2023-02-17T09:09:40.329Z,36.70
2023-02-17T09:13:19.049Z,37.80
2023-02-17T09:16:04.713Z,39.90
2023-02-17T09:18:37.749Z,30.00
2023-02-17T09:21:11.927Z,30.60
2023-02-17T09:23:41.744Z,32.80
2023-02-17T09:26:11.090Z,33.80
2023-02-17T09:28:40.295Z,31.50
2023-02-17T09:31:11.599Z,37.50
2023-02-17T09:33:40.293Z,32.50
2023-02-17T09:36:09.722Z,43.80
2023-02-17T09:38:39.373Z,36.60
2023-02-17T09:41:33.689Z,37.80
2023-02-17T09:44:02.162Z,41.70
2023-02-17T09:46:33.366Z,33.80
2023-02-17T09:49:40.184Z,31.10
2023-02-17T09:52:28.874Z,34.80
2023-02-17T09:55:49.735Z,32.90
2023-02-17T09:59:14.924Z,38.80
2023-02-17T10:01:53.512Z,34.20
2023-02-17T10:07:11.438Z,33.90
2023-02-17T10:10:30.924Z,41.40
2023-02-17T10:13:40.400Z,60.90
2023-02-17T10:16:17.693Z,40.20
2023-02-17T10:18:48.172Z,36.80
2023-02-17T10:21:21.546Z,38.80
2023-02-17T10:23:48.849Z,42.00
2023-02-17T10:26:21.972Z,37.60
2023-02-17T10:29:01.753Z,35.40
2023-02-17T10:31:47.331Z,34.20
2023-02-17T10:34:32.384Z,34.70
2023-02-17T10:37:01.005Z,38.40
2023-02-17T10:39:37.337Z,32.30
2023-02-17T10:42:04.325Z,30.80
2023-02-17T10:44:33.918Z,28.30
2023-02-17T10:47:01.135Z,29.00
2023-02-17T10:50:04.210Z,38.30
2023-02-17T10:53:40.204Z,32.70
2023-02-17T10:56:31.328Z,35.50
2023-02-17T11:03:33.494Z,31.90
2023-02-17T11:06:19.125Z,42.80
2023-02-17T11:09:04.971Z,46.50
2023-02-17T11:11:56.881Z,44.50
2023-02-17T11:14:26.681Z,47.40
2023-02-17T11:17:00.064Z,48.60
2023-02-17T11:19:36.960Z,46.50
2023-02-17T11:26:57.878Z,51.20
2023-02-17T11:29:29.132Z,52.00
2023-02-17T11:32:08.204Z,51.40
2023-02-17T11:34:36.981Z,57.00
2023-02-17T11:37:20.607Z,59.80
2023-02-17T11:39:48.890Z,51.80
2023-02-17T11:42:27.241Z,60.60
2023-02-17T11:44:56.580Z,56.20
2023-02-17T11:47:34.564Z,54.70
2023-02-17T11:50:46.038Z,51.30
2023-02-17T11:53:30.959Z,59.90
2023-02-17T11:56:07.686Z,57.00
2023-02-17T11:58:57.255Z,61.60
2023-02-17T12:01:38.892Z,67.50
2023-02-17T12:04:12.971Z,57.90
2023-02-17T12:06:45.587Z,64.30
2023-02-17T12:09:39.939Z,63.80
2023-02-17T12:12:15.167Z,51.40
2023-02-17T12:14:57.503Z,51.10
2023-02-17T12:17:35.255Z,51.50
2023-02-17T12:20:37.465Z,47.80
2023-02-17T12:23:18.951Z,55.60
2023-02-17T12:26:22.447Z,59.20
2023-02-17T12:28:57.804Z,57.50
2023-02-17T12:31:37.106Z,59.20
2023-02-17T12:34:22.342Z,60.80
2023-02-17T12:36:49.544Z,58.00
2023-02-17T12:39:22.016Z,62.90
2023-02-17T12:42:00.116Z,59.80
2023-02-17T12:44:34.571Z,67.60
2023-02-17T12:47:05.554Z,59.60
2023-02-17T12:49:38.074Z,68.30
2023-02-17T12:52:04.853Z,63.00
2023-02-17T12:54:35.880Z,66.10
2023-02-17T12:57:28.893Z,78.60
2023-02-17T12:59:55.554Z,62.80
2023-02-17T13:02:23.853Z,77.20
2023-02-17T13:04:53.153Z,71.00
2023-02-17T13:07:41.324Z,69.50
2023-02-17T13:10:21.473Z,61.50
2023-02-17T13:12:59.028Z,54.10
2023-02-17T13:15:30.349Z,64.90
2023-02-17T13:18:02.940Z,71.30
